Les 200 derniers speedtests

RNC Tech CID Down (Mb/s) Down MAX (Mb/s) Up (Mb/s) Up MAX (Mb/s) Temps Threads Departement Ville Date
11666 4G+5G 63 35.76 69 22.06 33 10 sec. 8 13 Coudoux 29/05/2022 10:24:41
9694 4G 63 133.86 159 46.79 66 10 sec. 5 84 Valréas 29/05/2022 10:10:51
4496 4G 61 277.61 320 28.73 51 10 sec. 20 45 Ladon 29/05/2022 09:55:20
4496 4G+5G 61 267.79 304 42.68 55 10 sec. 20 45 Ladon 29/05/2022 09:49:37
4496 4G+5G 61 292.8 321 60.29 77 10 sec. 20 45 Ladon 29/05/2022 09:48:54
1917 4G 61 159.44 206 25.48 34 10 sec. 8 62 Roclincourt 29/05/2022 09:47:22
7302 4G+5G 63 939.75 1158 68.16 81 10 sec. 10 83 La Valette-du-Var 29/05/2022 09:45:06
7302 4G+5G 63 877.61 1118 63.49 86 10 sec. 10 83 La Valette-du-Var 29/05/2022 09:44:01
7302 4G+5G 63 791.84 1052 78.93 98 10 sec. 10 83 La Valette-du-Var 29/05/2022 09:43:16
1739 4G 61 248.37 282 58.07 70 5 sec. 20 83 Hyères 29/05/2022 09:15:49
1739 4G 71 187.38 203 25.36 34 5 sec. 20 83 Hyères 29/05/2022 09:15:15
423968 4G+5G 71 784.87 917 68.61 86 5 sec. 20 83 Hyères 29/05/2022 09:08:58
423968 4G+5G 72 658.47 850 74.07 92 5 sec. 20 83 Hyères 29/05/2022 09:08:44
423968 4G+5G 72 770.14 888 76.46 85 5 sec. 20 83 Hyères 29/05/2022 09:08:31
423968 4G+5G 72 747.28 871 76.41 93 5 sec. 20 83 Hyères 29/05/2022 09:08:19
423968 4G+5G 73 831.83 928 72.3 86 5 sec. 20 83 Hyères 29/05/2022 09:08:06
423968 4G+5G 73 798.03 920 61.59 73 5 sec. 20 83 Hyères 29/05/2022 09:07:55
422960 4G+5G 82 104.93 123 28.07 37 5 sec. 20 83 Hyères 29/05/2022 09:07:11
422960 4G+5G 82 120.24 164 23.04 34 5 sec. 20 83 Hyères 29/05/2022 09:06:46
422960 4G+5G 82 180.37 208 21.42 35 5 sec. 20 83 Hyères 29/05/2022 09:06:27
422960 4G+5G 82 195.69 245 31.48 41 5 sec. 20 83 Hyères 29/05/2022 09:06:01
1843 4G+5G 62 550.98 634 50.54 64 10 sec. 20 83 La Crau 29/05/2022 08:57:35
1843 4G+5G 62 332.48 491 42.92 58 5 sec. 20 83 La Crau 29/05/2022 08:57:09
1843 4G+5G 63 460.87 556 54.82 75 5 sec. 20 83 La Crau 29/05/2022 08:56:48
424002 4G+5G 62 663 739 66.04 80 5 sec. 20 83 La Garde 29/05/2022 08:54:49
11562 4G+5G 61 487.57 655 49.93 67 5 sec. 20 83 La Garde 29/05/2022 08:54:31
11562 4G+5G 62 538.67 660 58.59 71 10 sec. 20 83 La Garde 29/05/2022 08:53:12
11562 4G+5G 62 543.74 610 44.14 53 10 sec. 20 83 La Garde 29/05/2022 08:52:50
11562 4G+5G 62 562.33 653 45.1 52 10 sec. 20 83 La Garde 29/05/2022 08:52:25
5232 4G+5G 61 592.1 687 37.31 48 5 sec. 20 83 La Garde 29/05/2022 08:51:47
5232 4G+5G 61 812.16 923 63.04 75 5 sec. 20 83 La Garde 29/05/2022 08:51:34
5232 4G+5G 61 752.73 816 98.21 115 5 sec. 20 83 La Garde 29/05/2022 08:51:21
5232 4G+5G 61 811.33 913 80.69 95 5 sec. 20 83 La Garde 29/05/2022 08:51:08
5232 4G+5G 63 570.33 622 39.21 50 5 sec. 20 83 La Garde 29/05/2022 08:50:45
5232 4G+5G 63 619.97 705 33.93 42 5 sec. 20 83 La Garde 29/05/2022 08:50:31
11155 4G 82 319.66 346 28.52 62 10 sec. 20 45 29/05/2022 08:44:04
421903 4G+5G 61 685.16 811 23.85 55 10 sec. 20 45 Villemandeur 29/05/2022 08:26:53
421903 4G+5G 61 616.21 766 35.59 63 10 sec. 20 45 Villemandeur 29/05/2022 08:26:30
421903 4G+5G 61 636.75 732 35.22 59 10 sec. 20 45 Villemandeur 29/05/2022 08:26:04
421903 4G+5G 62 664.31 776 31.07 64 10 sec. 20 45 Villemandeur 29/05/2022 08:25:34
6361 4G+5G 63 381.51 440 31.97 56 10 sec. 20 45 Villemandeur 29/05/2022 08:22:11
8783 4G+5G 83 411.84 537 34.7 49 10 sec. 20 45 Amilly 29/05/2022 08:11:51
1633 4G+5G 83 666.61 785 28.23 47 10 sec. 20 45 Amilly 29/05/2022 08:09:29
5232 4G+5G 63 573.28 625 69.66 87 10 sec. 20 83 La Garde 29/05/2022 07:58:21
2669 4G+5G 63 473.82 557 65.44 116 15 sec. 20 81 Albi 29/05/2022 05:51:18
2669 4G+5G 63 520.33 661 49.53 85 10 sec. 8 81 Albi 29/05/2022 05:46:43
2669 4G+5G 63 528.81 573 40.71 61 10 sec. 8 81 Albi 29/05/2022 05:46:08
423962 4G+5G 81 111.03 120 26.3 31 10 sec. 8 Saint-Georges-sur-Allier 29/05/2022 02:35:19
6268 4G 72 60.75 69 20.66 25 10 sec. 6 44 Saint-Herblain 29/05/2022 01:20:06
7859 4G+5G 82 406.8 477 23.32 30 30 sec. 20 95 Persan 29/05/2022 01:13:13
420675 4G+5G 83 421.11 523 44.3 60 10 sec. 20 54 Dieulouard 29/05/2022 00:50:32
25217 4G+5G 62 741.32 841 41.78 55 10 sec. 15 Paris 28/05/2022 22:47:19
25217 4G+5G 82 744.88 840 63.44 73 10 sec. 15 Paris 28/05/2022 22:45:35
8243 4G 73 108.68 129 26.71 41 10 sec. 8 71 Ratte 28/05/2022 22:41:51
25217 4G+5G 82 518.4 603 77.98 102 10 sec. 15 Paris 28/05/2022 22:39:56
25217 4G+5G 82 520.15 651 49.44 58 10 sec. 15 Paris 28/05/2022 22:31:58
25217 4G+5G 82 462.59 597 63 74 10 sec. 15 Paris 28/05/2022 22:31:29
25217 4G+5G 82 354.02 438 45.02 53 10 sec. 15 Paris 28/05/2022 22:29:31
25217 4G+5G 61 746.34 819 66.24 87 10 sec. 15 Paris 28/05/2022 22:05:28
1103 3G 40949 10.62 13 4.51 9 10 sec. 15 Boulogne-Billancourt 28/05/2022 21:59:48
3608 4G 73 8 13 5.67 8 10 sec. 8 38 Aoste 28/05/2022 21:55:37
25217 4G 61 190.17 250 47.95 71 10 sec. 15 Boulogne-Billancourt 28/05/2022 21:51:16
25217 4G 61 183.38 263 57.97 69 10 sec. 15 Paris 28/05/2022 21:50:25
25217 4G 61 204.4 242 66.2 79 10 sec. 15 Paris 28/05/2022 21:49:50
25217 4G 61 229.12 274 44.67 65 10 sec. 15 Boulogne-Billancourt 28/05/2022 21:49:21
6925 4G+5G 62 672.41 735 111.97 176 10 sec. 8 25 Miserey-Salines 28/05/2022 21:46:26
6925 4G+5G 62 653.07 740 113.81 209 10 sec. 8 25 Miserey-Salines 28/05/2022 21:45:26
425000 4G 62 109.7 129 22.51 27 10 sec. 5 Witry-lès-Reims 28/05/2022 21:38:25
25217 4G+5G 61 774.76 843 43 56 10 sec. 15 Boulogne-Billancourt 28/05/2022 21:36:56
25217 4G+5G 61 755.5 851 72.67 93 10 sec. 15 Paris 28/05/2022 21:35:43
25217 4G+5G 61 744.75 842 58.36 84 10 sec. 15 Boulogne-Billancourt 28/05/2022 21:31:43
25217 4G+5G 61 717.9 804 58.38 80 10 sec. 15 Boulogne-Billancourt 28/05/2022 21:30:57
25217 4G+5G 51 727.87 777 68.78 84 10 sec. 15 Paris 28/05/2022 21:28:40
25217 4G+5G 81 710.91 801 74.74 92 10 sec. 15 Paris 28/05/2022 21:27:38
423767 4G 61 307.08 321 39.43 49 10 sec. 8 19 Uzerche 28/05/2022 21:17:14
3349 4G+5G 61 507.45 665 56.89 72 10 sec. 15 57 Metz 28/05/2022 20:37:11
3349 4G+5G 61 464.13 636 35.51 56 10 sec. 15 57 Metz 28/05/2022 20:36:46
7338 4G+5G 63 124.63 159 27.15 38 10 sec. 5 81 Albi 28/05/2022 20:20:22
7338 4G+5G 63 138.11 176 31.89 45 10 sec. 5 81 Albi 28/05/2022 20:19:51
7765 4G 63 90.07 115 36.31 44 10 sec. 8 95 Puiseux-Pontoise 28/05/2022 20:19:41
7159 4G+5G 62 428.16 671 92.25 103 10 sec. 8 07 Guilherand-Granges 28/05/2022 20:13:22
7159 4G+5G 62 486.33 689 95.18 106 10 sec. 8 07 Guilherand-Granges 28/05/2022 20:12:52
302186 4G+5G 52 85.73 120 26.51 37 10 sec. 8 78 Versailles 28/05/2022 20:10:45
4605 4G 61 138.39 184 54.44 65 10 sec. 8 68 Kingersheim 28/05/2022 20:02:34
3336 4G 61 121.23 192 28.36 45 10 sec. 8 94 Gentilly 28/05/2022 19:59:07
3336 4G 61 119.57 156 29.68 51 10 sec. 8 94 Gentilly 28/05/2022 19:58:17
3564 4G+5G 63 636.98 764 81.09 98 10 sec. 20 75 Paris 28/05/2022 19:51:10
7790 4G 71 3.42 6 7.83 11 10 sec. 8 44 Saint-Michel-Chef-Chef 28/05/2022 19:38:38
8703 4G 61 120.71 165 48.14 70 10 sec. 8 77 Rouvres 28/05/2022 19:33:30
1052 4G 83 531.23 715 44.86 50 30 sec. 20 44 Basse-Goulaine 28/05/2022 19:22:04
13577 4G 81 59.03 69 22.16 34 10 sec. 15 75 Paris 28/05/2022 18:56:22
421535 4G 82 62.74 69 34.6 47 10 sec. 15 75 28/05/2022 18:54:06
12471 4G 81 64.73 70 29.84 43 10 sec. 15 75 28/05/2022 18:50:46
11533 4G 81 62.85 69 35.16 52 10 sec. 15 75 28/05/2022 18:49:10
11504 4G 81 53.21 69 37.93 49 10 sec. 15 75 28/05/2022 18:47:45
421529 4G 82 61.64 70 23.68 36 10 sec. 15 28/05/2022 18:42:35
3159 4G+5G 63 161.11 185 32.77 61 10 sec. 8 04 Digne-les-Bains 28/05/2022 18:40:38
3159 4G+5G 63 150.94 180 48.21 86 10 sec. 8 04 Digne-les-Bains 28/05/2022 18:40:10
420236 4G 62 140.72 155 51.95 67 10 sec. 15 28/05/2022 18:39:53
3159 4G 63 148.41 170 46.59 77 10 sec. 8 04 Digne-les-Bains 28/05/2022 18:39:20
3159 4G 63 173.61 200 50.97 85 10 sec. 8 04 Digne-les-Bains 28/05/2022 18:38:00
421523 4G 82 69.38 71 28.65 40 10 sec. 15 28/05/2022 18:35:44
9308 4G+5G 83 606.05 655 36.1 47 10 sec. 8 82 Caussade 28/05/2022 18:29:45
1479 4G+5G 63 211.92 252 24.32 31 10 sec. 8 59 Roubaix 28/05/2022 18:25:03
1479 4G 63 35.84 52 22.35 30 10 sec. 8 59 Roubaix 28/05/2022 18:24:10
422734 4G 62 209.43 245 53.07 84 10 sec. 20 11 Mas-des-Cours 28/05/2022 18:16:23
6285 4G 62 1.95 5 2.19 5 10 sec. 6 91 Palaiseau 28/05/2022 18:15:10
6359 4G+5G 63 286.97 341 21.08 30 10 sec. 20 74 Anthy-sur-Léman 28/05/2022 18:14:43
423767 4G 81 300.92 322 55.78 69 10 sec. 8 19 Uzerche 28/05/2022 18:09:59
423767 4G 81 267 311 52.63 71 10 sec. 8 19 Uzerche 28/05/2022 18:09:33
2371 3G 35977 5.65 7 2.8 4 10 sec. 8 82 Bruniquel 28/05/2022 18:08:45
2031 4G 63 6.37 14 0 0 10 sec. 8 34 Saint-Nazaire-de-Pézan 28/05/2022 17:47:29
422252 4G+5G 81 191.76 231 36.4 49 10 sec. 8 81 Castelnau-de-Montmiral 28/05/2022 17:44:48
422734 4G 63 185.67 212 57 69 10 sec. 20 11 Mas-des-Cours 28/05/2022 17:41:57
3943 4G 83 4.64 8 5.25 9 10 sec. 6 91 Palaiseau 28/05/2022 17:28:49
1040735 4G 19 48.69 55 31.49 46 10 sec. 8 Murasson 28/05/2022 17:28:44
421020 4G+5G 62 377.63 424 62.69 75 10 sec. 8 41 Vineuil 28/05/2022 17:20:19
7159 4G+5G 62 697.17 858 78.75 89 10 sec. 8 07 Guilherand-Granges 28/05/2022 17:10:14
2331 4G+5G 62 868.82 913 119.17 198 15 sec. 20 13 Aix-en-Provence 28/05/2022 17:10:10
7159 4G+5G 62 768.02 896 72.45 88 10 sec. 8 07 Guilherand-Granges 28/05/2022 17:09:50
7159 4G+5G 82 712.73 817 67.7 84 10 sec. 8 07 Guilherand-Granges 28/05/2022 17:08:56
7159 4G+5G 82 721.48 840 54.88 73 10 sec. 8 07 Guilherand-Granges 28/05/2022 17:08:30
2331 4G+5G 62 768.97 848 112.86 184 10 sec. 15 13 Aix-en-Provence 28/05/2022 17:08:20
7159 4G+5G 82 715.6 812 59.09 74 10 sec. 8 07 Guilherand-Granges 28/05/2022 17:08:01
7159 4G+5G 82 701.8 794 55.83 69 10 sec. 8 07 Guilherand-Granges 28/05/2022 17:07:16
7159 4G+5G 82 668.34 798 65.32 80 10 sec. 8 07 Guilherand-Granges 28/05/2022 17:06:50
7159 4G+5G 82 677.81 774 53.77 65 10 sec. 8 07 Guilherand-Granges 28/05/2022 17:06:27
7159 4G+5G 82 675.53 778 63.9 77 10 sec. 8 07 Guilherand-Granges 28/05/2022 17:06:04
7159 4G+5G 62 624.98 766 80.18 95 10 sec. 8 07 Guilherand-Granges 28/05/2022 17:05:08
7159 4G+5G 62 612.74 728 67.07 80 10 sec. 8 07 Guilherand-Granges 28/05/2022 17:04:43
1474 4G 62 141.18 174 20.86 31 10 sec. 8 60 Estrées-Saint-Denis 28/05/2022 17:04:29
1474 4G 62 135.6 164 31.97 46 10 sec. 8 60 Estrées-Saint-Denis 28/05/2022 17:03:26
6471 4G+5G 61 179.31 209 43.47 67 10 sec. 12 42 La Talaudière 28/05/2022 17:01:02
424718 4G+5G 61 798.27 929 103.34 124 10 sec. 20 59 Mortagne-du-Nord 28/05/2022 16:57:28
424718 4G+5G 61 807.11 925 100.21 119 10 sec. 20 59 Mortagne-du-Nord 28/05/2022 16:57:03
424718 4G+5G 61 845.81 933 99.71 117 10 sec. 20 59 Mortagne-du-Nord 28/05/2022 16:56:40
998 3G 48408 0 0 0 0 10 sec. 8 02 Monceau-le-Neuf-et-Faucouzy 28/05/2022 16:54:38
6331 4G 63 179.5 306 39.74 82 10 sec. 8 04 Digne-les-Bains 28/05/2022 16:54:20
5232 4G+5G 63 513.82 572 37.62 56 5 sec. 20 83 La Garde 28/05/2022 16:53:46
5232 4G+5G 62 673.63 764 49.59 64 5 sec. 20 83 La Garde 28/05/2022 16:52:42
5232 4G+5G 62 622.47 734 24.07 58 5 sec. 20 83 La Garde 28/05/2022 16:52:26
5232 4G+5G 61 590.5 675 32.21 44 5 sec. 20 83 La Garde 28/05/2022 16:52:13
12787 4G 83 262.07 286 29.66 40 10 sec. 20 44 Saint-Lyphard 28/05/2022 16:49:21
7425 4G 61 9 13 5.59 12 10 sec. 8 93 Tremblay-en-France 28/05/2022 16:43:47
7425 4G 61 11.9 22 19.33 29 10 sec. 8 93 Le Mesnil-Amelot 28/05/2022 16:43:04
423817 4G 73 1.07 2 3.84 9 10 sec. 8 93 Fontenay-sous-Bois 28/05/2022 16:33:31
424002 4G+5G 62 538.61 644 47.35 70 5 sec. 20 83 La Garde 28/05/2022 16:32:40
424002 4G+5G 62 458.21 561 48.66 83 10 sec. 20 83 La Garde 28/05/2022 16:32:25
424002 4G+5G 72 429.77 600 22.4 29 5 sec. 20 83 La Garde 28/05/2022 16:30:33
13261 4G 82 331 352 35.23 46 10 sec. 20 44 Herbignac 28/05/2022 16:29:42
423968 4G+5G 73 682.06 780 29.93 43 5 sec. 20 83 Hyères 28/05/2022 16:18:35
423968 4G+5G 73 796.07 926 59.5 69 5 sec. 20 83 Hyères 28/05/2022 16:18:22
1045647 4G 2 13.24 15 10.17 20 10 sec. 8 Warlus 28/05/2022 15:53:48
1770 4G 63 309.65 343 46.95 59 10 sec. 10 33 Biganos 28/05/2022 15:47:39
7206 4G+5G 62 464.64 529 25.08 34 10 sec. 5 39 Dole 28/05/2022 15:33:23
7206 4G+5G 62 461.23 538 25.23 36 10 sec. 5 39 Dole 28/05/2022 15:31:45
6168 4G+5G 61 308.14 357 35.75 61 10 sec. 8 76 Sainte-Adresse 28/05/2022 15:18:02
6168 4G+5G 61 251.38 313 50.29 83 10 sec. 8 76 Sainte-Adresse 28/05/2022 15:17:26
423767 4G+5G 61 230.71 265 47.52 53 10 sec. 8 19 Uzerche 28/05/2022 15:17:09
8436 4G 72 9.36 14 1.18 2 10 sec. 6 45 Nargis 28/05/2022 15:08:16
11774 4G+5G 61 246.19 268 28.27 40 10 sec. 20 29 Saint-Thonan 28/05/2022 15:04:51
5812 4G 62 238.67 270 43.52 55 10 sec. 5 39 Gevry 28/05/2022 15:04:38
424362 4G+5G 73 326.68 425 23.44 42 10 sec. 20 34 Béziers 28/05/2022 15:03:51
5812 4G 62 191.55 267 32 37 10 sec. 5 39 Gevry 28/05/2022 15:02:38
6168 4G+5G 63 378.3 479 53.67 87 10 sec. 8 76 Sainte-Adresse 28/05/2022 14:59:47
420038 4G 61 196.12 235 63.03 73 10 sec. 8 92 Suresnes 28/05/2022 14:49:50
420038 4G 62 214.31 238 51.81 65 10 sec. 8 92 Suresnes 28/05/2022 14:47:37
5620 4G 62 135.69 203 33.38 45 5 sec. 20 83 Hyères 28/05/2022 14:46:53
5620 4G 62 196.92 269 29.38 42 5 sec. 20 83 Hyères 28/05/2022 14:46:35
5620 4G 61 229.74 283 44.21 53 5 sec. 20 83 Hyères 28/05/2022 14:46:21
5620 4G 61 165.19 213 43.74 67 5 sec. 20 83 Hyères 28/05/2022 14:46:09
1739 4G 61 173.3 199 59.7 97 5 sec. 20 83 Hyères 28/05/2022 14:44:15
1739 4G 61 213.93 241 75.67 99 5 sec. 20 83 Hyères 28/05/2022 14:43:59
421651 4G+5G 71 480.37 602 41.03 53 10 sec. 8 92 Suresnes 28/05/2022 14:37:09
421651 4G+5G 71 334.44 514 43.25 51 10 sec. 8 92 Suresnes 28/05/2022 14:36:34
421651 4G+5G 73 426.23 564 31.8 41 10 sec. 8 92 Suresnes 28/05/2022 14:34:45
424613 4G 63 55.78 62 34.91 45 10 sec. 8 54 Champigneulles 28/05/2022 14:33:36
3992 4G 62 9.05 25 1.25 3 10 sec. 8 29 28/05/2022 14:26:27
1799 3G 17900 9.18 11 2.13 4 10 sec. 8 Le Plessis-Belleville 28/05/2022 14:25:02
423817 4G 73 4.22 8 1 1 10 sec. 8 93 Fontenay-sous-Bois 28/05/2022 14:21:31
423817 4G 73 5.21 6 2.06 4 10 sec. 8 93 Fontenay-sous-Bois 28/05/2022 14:21:03
1011 4G+5G 81 533.3 635 22.28 29 10 sec. 8 80 Dury 28/05/2022 13:44:59
1011 4G+5G 81 406.68 547 31.49 42 10 sec. 8 80 Amiens 28/05/2022 13:44:29
420675 4G+5G 63 542.09 612 65.63 99 10 sec. 20 54 Dieulouard 28/05/2022 13:40:09
13056 4G+5G 82 95.33 109 11.07 15 10 sec. 20 74 28/05/2022 13:31:54
425000 4G+5G 62 212.99 240 23.58 29 10 sec. 8 Witry-lès-Reims 28/05/2022 13:28:51
3140 4G+5G 62 577.51 677 35.78 74 10 sec. 20 11 Carcassonne 28/05/2022 13:26:38
6494 4G+5G 63 184.18 263 25.02 37 10 sec. 8 77 Villeparisis 28/05/2022 12:51:16
146 4G 181 60.48 71 43.24 54 10 sec. 4 74 La Possession 28/05/2022 12:33:14
146 4G 181 114.91 143 39.78 48 10 sec. 4 74 La Possession 28/05/2022 12:29:55
3705 4G 72 1.38 2 9.06 17 10 sec. 5 75 Paris 28/05/2022 12:25:31
424074 4G+5G 62 946.5 1302 100.22 123 10 sec. 8 17 Saintes 28/05/2022 12:16:04
7302 4G+5G 63 592.72 756 38.83 48 10 sec. 10 83 La Valette-du-Var 28/05/2022 12:12:09
7302 4G+5G 63 813.23 1016 40.02 58 10 sec. 10 83 La Valette-du-Var 28/05/2022 12:11:41
7302 4G+5G 63 774.98 944 37.93 51 10 sec. 10 83 La Valette-du-Var 28/05/2022 12:10:31
1806 4G 71 96.89 132 22.95 28 10 sec. 8 57 Villerupt 28/05/2022 12:07:03
424074 4G+5G 62 678.14 843 40.65 55 10 sec. 8 17 Saintes 28/05/2022 11:55:09
1920 4G+5G 62 495.6 543 28.59 37 10 sec. 8 67 Strasbourg 28/05/2022 11:49:04
2386 4G+5G 62 438.83 536 93.61 105 10 sec. 8 88 Saint-Dié-des-Vosges 28/05/2022 11:46:29
2386 4G+5G 62 422.52 491 78.29 91 10 sec. 8 88 Saint-Dié-des-Vosges 28/05/2022 11:45:33